sensor_id;sensor_type;location;lat;lon;timestamp;pressure;altitude;pressure_sealevel;temperature;humidity
66945;BME280;53853;51.982;5.928;2023-08-24T00:02:15;101756.44;;;19.29;67.09
66945;BME280;53853;51.982;5.928;2023-08-24T00:04:44;101754.13;;;19.26;67.72
66945;BME280;53853;51.982;5.928;2023-08-24T00:07:14;101749.06;;;19.23;68.10
66945;BME280;53853;51.982;5.928;2023-08-24T00:09:44;101750.09;;;19.22;67.87
66945;BME280;53853;51.982;5.928;2023-08-24T00:12:14;101750.28;;;19.20;68.16
66945;BME280;53853;51.982;5.928;2023-08-24T00:14:44;101746.75;;;19.19;68.29
66945;BME280;53853;51.982;5.928;2023-08-24T00:17:17;101752.16;;;19.19;68.42
66945;BME280;53853;51.982;5.928;2023-08-24T00:19:47;101752.50;;;19.16;68.84
66945;BME280;53853;51.982;5.928;2023-08-24T00:22:17;101747.09;;;19.16;68.31
66945;BME280;53853;51.982;5.928;2023-08-24T00:24:46;101756.91;;;19.17;67.94
66945;BME280;53853;51.982;5.928;2023-08-24T00:27:16;101751.50;;;19.17;68.62
66945;BME280;53853;51.982;5.928;2023-08-24T00:29:48;101746.09;;;19.17;67.95
66945;BME280;53853;51.982;5.928;2023-08-24T00:32:21;101742.34;;;19.18;67.76
66945;BME280;53853;51.982;5.928;2023-08-24T00:34:51;101738.00;;;19.17;67.66
66945;BME280;53853;51.982;5.928;2023-08-24T00:37:21;101724.47;;;19.17;67.58
66945;BME280;53853;51.982;5.928;2023-08-24T00:39:51;101717.38;;;19.16;67.51
66945;BME280;53853;51.982;5.928;2023-08-24T00:42:21;101725.50;;;19.16;67.56
66945;BME280;53853;51.982;5.928;2023-08-24T00:44:51;101724.47;;;19.17;67.46
66945;BME280;53853;51.982;5.928;2023-08-24T00:47:24;101732.59;;;19.17;67.68
66945;BME280;53853;51.982;5.928;2023-08-24T00:49:54;101737.13;;;19.17;68.47
66945;BME280;53853;51.982;5.928;2023-08-24T00:52:26;101742.53;;;19.17;68.49
66945;BME280;53853;51.982;5.928;2023-08-24T00:54:57;101748.78;;;19.17;68.70
66945;BME280;53853;51.982;5.928;2023-08-24T00:57:28;101739.81;;;19.17;68.99
66945;BME280;53853;51.982;5.928;2023-08-24T01:00:00;101737.13;;;19.17;68.47
66945;BME280;53853;51.982;5.928;2023-08-24T01:02:35;101735.66;;;19.14;68.88
66945;BME280;53853;51.982;5.928;2023-08-24T01:05:05;101732.47;;;19.11;69.24
66945;BME280;53853;51.982;5.928;2023-08-24T01:07:38;101732.66;;;19.09;69.63
66945;BME280;53853;51.982;5.928;2023-08-24T01:10:12;101720.00;;;19.10;69.86
66945;BME280;53853;51.982;5.928;2023-08-24T01:13:02;101721.84;;;19.09;70.14
66945;BME280;53853;51.982;5.928;2023-08-24T01:15:38;101718.50;;;19.07;70.83
66945;BME280;53853;51.982;5.928;2023-08-24T01:18:16;101723.72;;;19.09;70.39
66945;BME280;53853;51.982;5.928;2023-08-24T01:20:47;101714.41;;;19.11;70.07
66945;BME280;53853;51.982;5.928;2023-08-24T01:23:28;101718.94;;;19.11;70.26
66945;BME280;53853;51.982;5.928;2023-08-24T01:26:12;101717.94;;;19.12;69.94
66945;BME280;53853;51.982;5.928;2023-08-24T01:28:44;101728.09;;;19.10;70.69
66945;BME280;53853;51.982;5.928;2023-08-24T01:31:15;101727.06;;;19.11;70.86
66945;BME280;53853;51.982;5.928;2023-08-24T01:33:46;101729.94;;;19.09;70.30
66945;BME280;53853;51.982;5.928;2023-08-24T01:36:16;101723.53;;;19.10;70.62
66945;BME280;53853;51.982;5.928;2023-08-24T01:38:50;101706.31;;;19.11;70.84
66945;BME280;53853;51.982;5.928;2023-08-24T01:41:30;101702.56;;;19.12;70.75
66945;BME280;53853;51.982;5.928;2023-08-24T01:44:04;101711.34;;;19.14;70.61
66945;BME280;53853;51.982;5.928;2023-08-24T01:46:37;101707.59;;;19.15;70.22
66945;BME280;53853;51.982;5.928;2023-08-24T01:49:08;101718.41;;;19.15;70.83
66945;BME280;53853;51.982;5.928;2023-08-24T01:51:38;101711.16;;;19.16;70.51
66945;BME280;53853;51.982;5.928;2023-08-24T01:54:09;101703.88;;;19.16;70.79
66945;BME280;53853;51.982;5.928;2023-08-24T01:56:41;101710.97;;;19.17;71.59
66945;BME280;53853;51.982;5.928;2023-08-24T01:59:11;101709.91;;;19.18;71.68
66945;BME280;53853;51.982;5.928;2023-08-24T02:01:41;101703.31;;;19.21;70.97
66945;BME280;53853;51.982;5.928;2023-08-24T02:04:11;101707.69;;;19.22;70.69
66945;BME280;53853;51.982;5.928;2023-08-24T02:06:41;101703.97;;;19.23;71.32
66945;BME280;53853;51.982;5.928;2023-08-24T02:09:11;101716.47;;;19.24;71.63
66945;BME280;53853;51.982;5.928;2023-08-24T02:11:43;101715.22;;;19.27;71.84
66945;BME280;53853;51.982;5.928;2023-08-24T02:14:13;101720.44;;;19.28;72.06
66945;BME280;53853;51.982;5.928;2023-08-24T02:16:43;101724.66;;;19.31;72.02
66945;BME280;53853;51.982;5.928;2023-08-24T02:19:13;101737.97;;;19.32;72.60
66945;BME280;53853;51.982;5.928;2023-08-24T02:21:43;101743.03;;;19.35;71.65
66945;BME280;53853;51.982;5.928;2023-08-24T02:24:13;101737.44;;;19.37;71.69
66945;BME280;53853;51.982;5.928;2023-08-24T02:26:46;101718.31;;;19.39;71.96
66945;BME280;53853;51.982;5.928;2023-08-24T02:29:16;101704.81;;;19.39;72.22
66945;BME280;53853;51.982;5.928;2023-08-24T02:31:48;101696.50;;;19.40;71.27
66945;BME280;53853;51.982;5.928;2023-08-24T02:34:18;101704.63;;;19.40;71.21
66945;BME280;53853;51.982;5.928;2023-08-24T02:36:48;101710.66;;;19.42;71.59
66945;BME280;53853;51.982;5.928;2023-08-24T02:39:19;101709.66;;;19.43;71.23
66945;BME280;53853;51.982;5.928;2023-08-24T02:41:52;101712.34;;;19.43;71.82
66945;BME280;53853;51.982;5.928;2023-08-24T02:44:22;101715.69;;;19.45;72.12
66945;BME280;53853;51.982;5.928;2023-08-24T02:46:53;101712.81;;;19.47;72.18
66945;BME280;53853;51.982;5.928;2023-08-24T02:49:23;101698.47;;;19.46;72.81
66945;BME280;53853;51.982;5.928;2023-08-24T02:51:53;101692.19;;;19.46;73.32
66945;BME280;53853;51.982;5.928;2023-08-24T02:56:59;101675.53;;;19.42;73.50
66945;BME280;53853;51.982;5.928;2023-08-24T02:59:29;101673.19;;;19.39;73.79
66945;BME280;53853;51.982;5.928;2023-08-24T03:01:59;101687.53;;;19.40;73.72
66945;BME280;53853;51.982;5.928;2023-08-24T03:04:29;101683.81;;;19.41;73.52
66945;BME280;53853;51.982;5.928;2023-08-24T03:07:00;101682.81;;;19.42;73.44
66945;BME280;53853;51.982;5.928;2023-08-24T03:09:31;101657.81;;;19.40;73.18
66945;BME280;53853;51.982;5.928;2023-08-24T03:12:05;101645.53;;;19.37;73.57
66945;BME280;53853;51.982;5.928;2023-08-24T03:14:34;101638.63;;;19.34;73.49
66945;BME280;53853;51.982;5.928;2023-08-24T03:17:04;101628.00;;;19.33;73.40
66945;BME280;53853;51.982;5.928;2023-08-24T03:19:34;101631.06;;;19.30;73.45
66945;BME280;53853;51.982;5.928;2023-08-24T03:22:04;101634.81;;;19.29;73.48
66945;BME280;53853;51.982;5.928;2023-08-24T03:24:34;101628.38;;;19.30;73.48
66945;BME280;53853;51.982;5.928;2023-08-24T03:27:07;101615.91;;;19.29;73.87
66945;BME280;53853;51.982;5.928;2023-08-24T03:29:37;101613.22;;;19.29;73.38
66945;BME280;53853;51.982;5.928;2023-08-24T03:32:07;101608.81;;;19.28;74.19
66945;BME280;53853;51.982;5.928;2023-08-24T03:34:37;101617.13;;;19.26;73.30
66945;BME280;53853;51.982;5.928;2023-08-24T03:37:07;101607.50;;;19.24;73.32
66945;BME280;53853;51.982;5.928;2023-08-24T03:39:38;101607.88;;;19.21;73.44
66945;BME280;53853;51.982;5.928;2023-08-24T03:42:10;101602.03;;;19.17;73.54
66945;BME280;53853;51.982;5.928;2023-08-24T03:44:40;101598.03;;;19.13;74.49
66945;BME280;53853;51.982;5.928;2023-08-24T03:47:10;101595.53;;;19.11;74.43
66945;BME280;53853;51.982;5.928;2023-08-24T03:49:42;101585.28;;;19.07;74.02
66945;BME280;53853;51.982;5.928;2023-08-24T03:52:13;101581.06;;;19.04;74.00
66945;BME280;53853;51.982;5.928;2023-08-24T03:54:42;101592.91;;;19.03;74.04
66945;BME280;53853;51.982;5.928;2023-08-24T03:57:15;101583.50;;;18.99;74.54
66945;BME280;53853;51.982;5.928;2023-08-24T03:59:45;101585.56;;;18.97;74.80
66945;BME280;53853;51.982;5.928;2023-08-24T04:02:17;101589.09;;;18.97;74.03
66945;BME280;53853;51.982;5.928;2023-08-24T04:04:47;101585.56;;;18.97;74.40
66945;BME280;53853;51.982;5.928;2023-08-24T04:07:17;101580.16;;;18.97;73.73
66945;BME280;53853;51.982;5.928;2023-08-24T04:09:48;101586.78;;;18.94;74.63
66945;BME280;53853;51.982;5.928;2023-08-24T04:12:21;101577.16;;;18.92;74.55
66945;BME280;53853;51.982;5.928;2023-08-24T04:14:51;101580.25;;;18.89;74.62
66945;BME280;53853;51.982;5.928;2023-08-24T04:17:21;101580.44;;;18.87;74.59
66945;BME280;53853;51.982;5.928;2023-08-24T04:19:51;101576.06;;;18.86;74.17
66945;BME280;53853;51.982;5.928;2023-08-24T04:22:20;101560.69;;;18.87;74.42
66945;BME280;53853;51.982;5.928;2023-08-24T04:24:50;101564.41;;;18.86;74.47
66945;BME280;53853;51.982;5.928;2023-08-24T04:27:23;101562.75;;;18.85;74.16
66945;BME280;53853;51.982;5.928;2023-08-24T04:29:53;101561.03;;;18.83;74.06
66945;BME280;53853;51.982;5.928;2023-08-24T04:32:23;101559.53;;;18.81;74.73
66945;BME280;53853;51.982;5.928;2023-08-24T04:34:53;101564.09;;;18.80;74.65
66945;BME280;53853;51.982;5.928;2023-08-24T04:37:23;101562.44;;;18.79;74.13
66945;BME280;53853;51.982;5.928;2023-08-24T04:39:53;101561.78;;;18.77;73.92
66945;BME280;53853;51.982;5.928;2023-08-24T04:42:25;101560.31;;;18.75;74.48
66945;BME280;53853;51.982;5.928;2023-08-24T04:44:55;101566.91;;;18.72;74.74
66945;BME280;53853;51.982;5.928;2023-08-24T04:47:25;101562.53;;;18.71;74.17
66945;BME280;53853;51.982;5.928;2023-08-24T04:49:55;101558.16;;;18.70;75.26
66945;BME280;53853;51.982;5.928;2023-08-24T04:52:25;101562.69;;;18.70;74.27
66945;BME280;53853;51.982;5.928;2023-08-24T04:54:55;101553.78;;;18.69;74.64
66945;BME280;53853;51.982;5.928;2023-08-24T04:57:27;101549.38;;;18.68;75.26
66945;BME280;53853;51.982;5.928;2023-08-24T04:59:57;101558.53;;;18.67;75.81
66945;BME280;53853;51.982;5.928;2023-08-24T05:02:27;101560.38;;;18.67;76.36
66945;BME280;53853;51.982;5.928;2023-08-24T05:05:00;101565.97;;;18.65;75.93
66945;BME280;53853;51.982;5.928;2023-08-24T05:07:30;101560.56;;;18.65;75.29
66945;BME280;53853;51.982;5.928;2023-08-24T05:09:59;101561.41;;;18.65;75.23
66945;BME280;53853;51.982;5.928;2023-08-24T05:12:32;101561.41;;;18.65;75.09
66945;BME280;53853;51.982;5.928;2023-08-24T05:15:03;101557.84;;;18.65;75.31
66945;BME280;53853;51.982;5.928;2023-08-24T05:17:33;101558.72;;;18.65;75.16
66945;BME280;53853;51.982;5.928;2023-08-24T05:20:03;101562.06;;;18.68;74.86
66945;BME280;53853;51.982;5.928;2023-08-24T05:22:33;101561.25;;;18.67;75.53
66945;BME280;53853;51.982;5.928;2023-08-24T05:25:03;101567.28;;;18.69;75.57
66945;BME280;53853;51.982;5.928;2023-08-24T05:27:38;101566.06;;;18.72;75.67
66945;BME280;53853;51.982;5.928;2023-08-24T05:30:09;101556.94;;;18.73;75.27
66945;BME280;53853;51.982;5.928;2023-08-24T05:32:40;101563.84;;;18.75;75.03
66945;BME280;53853;51.982;5.928;2023-08-24T05:35:10;101569.88;;;18.77;75.39
66945;BME280;53853;51.982;5.928;2023-08-24T05:37:40;101574.91;;;18.80;75.21
66945;BME280;53853;51.982;5.928;2023-08-24T05:40:10;101574.53;;;18.83;75.19
66945;BME280;53853;51.982;5.928;2023-08-24T05:42:43;101568.78;;;18.87;75.03
66945;BME280;53853;51.982;5.928;2023-08-24T05:45:13;101573.81;;;18.90;74.94
66945;BME280;53853;51.982;5.928;2023-08-24T05:47:43;101566.38;;;18.92;75.12
66945;BME280;53853;51.982;5.928;2023-08-24T05:50:13;101562.47;;;18.94;75.40
66945;BME280;53853;51.982;5.928;2023-08-24T05:52:43;101561.25;;;18.97;74.97
66945;BME280;53853;51.982;5.928;2023-08-24T05:55:12;101546.53;;;18.99;75.34
66945;BME280;53853;51.982;5.928;2023-08-24T05:57:45;101551.56;;;19.03;75.58
66945;BME280;53853;51.982;5.928;2023-08-24T06:00:16;101543.91;;;19.06;75.73
66945;BME280;53853;51.982;5.928;2023-08-24T06:02:49;101549.59;;;19.11;75.40
66945;BME280;53853;51.982;5.928;2023-08-24T06:05:19;101546.53;;;19.14;75.29
66945;BME280;53853;51.982;5.928;2023-08-24T06:07:49;101538.69;;;19.19;75.13
66945;BME280;53853;51.982;5.928;2023-08-24T06:10:19;101523.94;;;19.22;75.12
66945;BME280;53853;51.982;5.928;2023-08-24T06:12:51;101526.91;;;19.27;74.83
66945;BME280;53853;51.982;5.928;2023-08-24T06:15:21;101524.03;;;19.29;74.92
66945;BME280;53853;51.982;5.928;2023-08-24T06:17:54;101507.25;;;19.33;74.57
66945;BME280;53853;51.982;5.928;2023-08-24T06:20:26;101503.94;;;19.38;74.78
66945;BME280;53853;51.982;5.928;2023-08-24T06:22:56;101499.81;;;19.42;74.75
66945;BME280;53853;51.982;5.928;2023-08-24T06:25:26;101494.03;;;19.45;74.62
66945;BME280;53853;51.982;5.928;2023-08-24T06:27:59;101488.06;;;19.50;74.78
66945;BME280;53853;51.982;5.928;2023-08-24T06:30:30;101477.06;;;19.51;74.77
66945;BME280;53853;51.982;5.928;2023-08-24T06:33:04;101480.38;;;19.53;74.81
66945;BME280;53853;51.982;5.928;2023-08-24T06:35:34;101477.94;;;19.59;74.79
66945;BME280;53853;51.982;5.928;2023-08-24T06:38:05;101471.75;;;19.65;74.78
66945;BME280;53853;51.982;5.928;2023-08-24T06:40:35;101477.44;;;19.70;74.63
66945;BME280;53853;51.982;5.928;2023-08-24T06:43:07;101479.56;;;19.75;74.80
66945;BME280;53853;51.982;5.928;2023-08-24T06:45:37;101478.78;;;19.81;74.87
66945;BME280;53853;51.982;5.928;2023-08-24T06:48:07;101487.38;;;19.84;74.78
66945;BME280;53853;51.982;5.928;2023-08-24T06:50:37;101487.59;;;19.89;74.80
66945;BME280;53853;51.982;5.928;2023-08-24T06:53:07;101490.16;;;19.98;74.58
66945;BME280;53853;51.982;5.928;2023-08-24T06:55:37;101489.38;;;20.04;74.31
66945;BME280;53853;51.982;5.928;2023-08-24T06:58:09;101483.19;;;20.10;74.20
66945;BME280;53853;51.982;5.928;2023-08-24T07:00:39;101473.63;;;20.14;74.19
66945;BME280;53853;51.982;5.928;2023-08-24T07:03:09;101471.19;;;20.19;74.20
66945;BME280;53853;51.982;5.928;2023-08-24T07:05:39;101473.91;;;20.26;74.06
66945;BME280;53853;51.982;5.928;2023-08-24T07:08:09;101477.50;;;20.33;73.96
66945;BME280;53853;51.982;5.928;2023-08-24T07:10:39;101476.91;;;20.38;73.87
66945;BME280;53853;51.982;5.928;2023-08-24T07:13:12;101478.81;;;20.44;74.04
66945;BME280;53853;51.982;5.928;2023-08-24T07:15:42;101471.78;;;20.50;73.71
66945;BME280;53853;51.982;5.928;2023-08-24T07:18:12;101459.94;;;20.57;73.78
66945;BME280;53853;51.982;5.928;2023-08-24T07:20:42;101450.16;;;20.63;73.56
66945;BME280;53853;51.982;5.928;2023-08-24T07:23:12;101440.63;;;20.67;73.25
66945;BME280;53853;51.982;5.928;2023-08-24T07:25:41;101446.06;;;20.74;73.06
66945;BME280;53853;51.982;5.928;2023-08-24T07:28:14;101450.47;;;20.81;72.92
66945;BME280;53853;51.982;5.928;2023-08-24T07:30:44;101452.38;;;20.88;73.23
66945;BME280;53853;51.982;5.928;2023-08-24T07:33:14;101455.94;;;20.95;73.22
66945;BME280;53853;51.982;5.928;2023-08-24T07:35:44;101463.03;;;21.03;72.97
66945;BME280;53853;51.982;5.928;2023-08-24T07:38:13;101454.09;;;21.09;73.17
66945;BME280;53853;51.982;5.928;2023-08-24T07:40:43;101459.31;;;21.17;72.41
66945;BME280;53853;51.982;5.928;2023-08-24T07:43:16;101457.88;;;21.21;72.52
66945;BME280;53853;51.982;5.928;2023-08-24T07:45:46;101457.28;;;21.26;72.49
66945;BME280;53853;51.982;5.928;2023-08-24T07:48:16;101455.38;;;21.33;72.45
66945;BME280;53853;51.982;5.928;2023-08-24T07:50:46;101458.13;;;21.40;72.51
66945;BME280;53853;51.982;5.928;2023-08-24T07:53:16;101456.66;;;21.44;71.96
66945;BME280;53853;51.982;5.928;2023-08-24T07:55:46;101453.16;;;21.50;71.99
66945;BME280;53853;51.982;5.928;2023-08-24T07:58:19;101445.00;;;21.57;71.57
66945;BME280;53853;51.982;5.928;2023-08-24T08:00:50;101455.03;;;21.63;71.22
66945;BME280;53853;51.982;5.928;2023-08-24T08:03:20;101456.09;;;21.68;71.42
66945;BME280;53853;51.982;5.928;2023-08-24T08:05:50;101454.19;;;21.76;71.22
66945;BME280;53853;51.982;5.928;2023-08-24T08:08:21;101448.75;;;21.82;71.50
66945;BME280;53853;51.982;5.928;2023-08-24T08:10:58;101464.00;;;21.90;71.19
66945;BME280;53853;51.982;5.928;2023-08-24T08:13:31;101457.31;;;21.99;70.80
66945;BME280;53853;51.982;5.928;2023-08-24T08:16:02;101462.31;;;22.09;70.91
66945;BME280;53853;51.982;5.928;2023-08-24T08:18:33;101464.63;;;22.19;70.88
66945;BME280;53853;51.982;5.928;2023-08-24T08:21:09;101465.63;;;22.31;71.01
66945;BME280;53853;51.982;5.928;2023-08-24T08:23:40;101459.53;;;22.42;70.57
66945;BME280;53853;51.982;5.928;2023-08-24T08:26:11;101452.84;;;22.52;70.61
66945;BME280;53853;51.982;5.928;2023-08-24T08:28:44;101461.16;;;22.64;70.10
66945;BME280;53853;51.982;5.928;2023-08-24T08:31:13;101452.34;;;22.75;69.80
66945;BME280;53853;51.982;5.928;2023-08-24T08:33:43;101447.47;;;22.84;69.44
66945;BME280;53853;51.982;5.928;2023-08-24T08:36:13;101448.66;;;22.94;69.60
66945;BME280;53853;51.982;5.928;2023-08-24T08:38:43;101450.47;;;23.07;69.91
66945;BME280;53853;51.982;5.928;2023-08-24T08:41:15;101452.31;;;23.20;69.61
66945;BME280;53853;51.982;5.928;2023-08-24T08:43:49;101450.78;;;23.31;69.28
66945;BME280;53853;51.982;5.928;2023-08-24T08:46:19;101448.66;;;23.40;69.37
66945;BME280;53853;51.982;5.928;2023-08-24T08:48:53;101436.22;;;23.50;69.68
66945;BME280;53853;51.982;5.928;2023-08-24T08:51:24;101424.63;;;23.62;69.17
66945;BME280;53853;51.982;5.928;2023-08-24T08:53:54;101413.66;;;23.68;68.42
66945;BME280;53853;51.982;5.928;2023-08-24T08:56:24;101407.09;;;23.76;68.46
66945;BME280;53853;51.982;5.928;2023-08-24T08:58:57;101406.41;;;23.87;68.43
66945;BME280;53853;51.982;5.928;2023-08-24T09:01:28;101392.84;;;23.99;68.79
66945;BME280;53853;51.982;5.928;2023-08-24T09:03:59;101386.66;;;24.11;68.42
66945;BME280;53853;51.982;5.928;2023-08-24T09:06:30;101375.72;;;24.17;67.73
66945;BME280;53853;51.982;5.928;2023-08-24T09:09:01;101369.03;;;24.32;67.68
66945;BME280;53853;51.982;5.928;2023-08-24T09:11:32;101359.28;;;24.42;68.03
66945;BME280;53853;51.982;5.928;2023-08-24T09:14:05;101360.59;;;24.52;67.60
66945;BME280;53853;51.982;5.928;2023-08-24T09:16:35;101355.09;;;24.58;66.53
66945;BME280;53853;51.982;5.928;2023-08-24T09:19:06;101352.75;;;24.62;64.94
66945;BME280;53853;51.982;5.928;2023-08-24T09:21:38;101350.16;;;24.67;65.17
66945;BME280;53853;51.982;5.928;2023-08-24T09:24:09;101341.41;;;24.77;65.65
66945;BME280;53853;51.982;5.928;2023-08-24T09:26:40;101335.63;;;24.85;65.58
66945;BME280;53853;51.982;5.928;2023-08-24T09:29:15;101323.78;;;24.91;65.25
66945;BME280;53853;51.982;5.928;2023-08-24T09:31:45;101315.13;;;24.94;65.17
66945;BME280;53853;51.982;5.928;2023-08-24T09:34:15;101310.28;;;24.97;64.51
66945;BME280;53853;51.982;5.928;2023-08-24T09:36:48;101308.97;;;24.99;64.72
66945;BME280;53853;51.982;5.928;2023-08-24T09:39:18;101305.31;;;25.05;64.94
66945;BME280;53853;51.982;5.928;2023-08-24T09:41:50;101295.38;;;25.11;64.84
66945;BME280;53853;51.982;5.928;2023-08-24T09:44:22;101293.34;;;25.18;64.83
66945;BME280;53853;51.982;5.928;2023-08-24T09:46:52;101301.06;;;25.21;63.76
66945;BME280;53853;51.982;5.928;2023-08-24T09:49:22;101301.81;;;25.28;63.22
66945;BME280;53853;51.982;5.928;2023-08-24T09:51:56;101302.50;;;25.36;62.97
66945;BME280;53853;51.982;5.928;2023-08-24T09:54:27;101308.22;;;25.46;63.53
66945;BME280;53853;51.982;5.928;2023-08-24T09:56:58;101300.25;;;25.56;64.01
66945;BME280;53853;51.982;5.928;2023-08-24T09:59:33;101305.34;;;25.64;63.66
66945;BME280;53853;51.982;5.928;2023-08-24T10:02:06;101302.13;;;25.67;62.26
66945;BME280;53853;51.982;5.928;2023-08-24T10:04:42;101317.78;;;25.72;62.53
66945;BME280;53853;51.982;5.928;2023-08-24T10:07:16;101323.13;;;25.79;62.46
66945;BME280;53853;51.982;5.928;2023-08-24T10:09:56;101329.28;;;25.86;62.86
66945;BME280;53853;51.982;5.928;2023-08-24T10:12:29;101331.66;;;25.94;62.89
66945;BME280;53853;51.982;5.928;2023-08-24T10:15:03;101323.94;;;26.03;62.99
66945;BME280;53853;51.982;5.928;2023-08-24T10:17:34;101330.34;;;26.09;63.39
66945;BME280;53853;51.982;5.928;2023-08-24T10:20:07;101341.63;;;26.12;63.09
66945;BME280;53853;51.982;5.928;2023-08-24T10:22:38;101334.25;;;26.13;62.61
66945;BME280;53853;51.982;5.928;2023-08-24T10:25:09;101336.50;;;26.16;61.96
66945;BME280;53853;51.982;5.928;2023-08-24T10:27:39;101329.38;;;26.15;61.11
66945;BME280;53853;51.982;5.928;2023-08-24T10:30:15;101308.00;;;26.12;60.96
66945;BME280;53853;51.982;5.928;2023-08-24T10:32:45;101307.75;;;26.13;61.06
66945;BME280;53853;51.982;5.928;2023-08-24T10:35:20;101301.47;;;26.13;61.46
66945;BME280;53853;51.982;5.928;2023-08-24T10:37:53;101300.66;;;26.12;61.08
66945;BME280;53853;51.982;5.928;2023-08-24T10:40:32;101281.28;;;26.14;61.30
66945;BME280;53853;51.982;5.928;2023-08-24T10:43:05;101281.53;;;26.12;61.18
66945;BME280;53853;51.982;5.928;2023-08-24T10:45:56;101265.88;;;26.08;61.07
66945;BME280;53853;51.982;5.928;2023-08-24T10:48:28;101273.13;;;26.02;60.93
66945;BME280;53853;51.982;5.928;2023-08-24T10:51:16;101279.31;;;25.97;61.41
66945;BME280;53853;51.982;5.928;2023-08-24T10:53:50;101269.06;;;25.93;61.46
66945;BME280;53853;51.982;5.928;2023-08-24T10:56:22;101268.16;;;25.87;61.78
66945;BME280;53853;51.982;5.928;2023-08-24T10:59:11;101264.72;;;25.80;61.64
66945;BME280;53853;51.982;5.928;2023-08-24T11:01:55;101270.31;;;25.73;61.97
66945;BME280;53853;51.982;5.928;2023-08-24T11:04:26;101271.03;;;25.68;61.97
66945;BME280;53853;51.982;5.928;2023-08-24T11:06:57;101270.94;;;25.63;62.00
66945;BME280;53853;51.982;5.928;2023-08-24T11:09:45;101272.47;;;25.59;62.24
66945;BME280;53853;51.982;5.928;2023-08-24T11:12:16;101277.84;;;25.54;62.49
66945;BME280;53853;51.982;5.928;2023-08-24T11:14:52;101276.16;;;25.53;62.43
66945;BME280;53853;51.982;5.928;2023-08-24T11:17:30;101275.09;;;25.54;62.33
66945;BME280;53853;51.982;5.928;2023-08-24T11:20:01;101274.53;;;25.52;62.57
66945;BME280;53853;51.982;5.928;2023-08-24T11:22:33;101274.53;;;25.52;62.59
66945;BME280;53853;51.982;5.928;2023-08-24T11:25:04;101281.63;;;25.53;62.54
66945;BME280;53853;51.982;5.928;2023-08-24T11:27:35;101281.63;;;25.53;62.09
66945;BME280;53853;51.982;5.928;2023-08-24T11:30:08;101283.28;;;25.54;62.31
66945;BME280;53853;51.982;5.928;2023-08-24T11:32:40;101269.88;;;25.53;62.38
66945;BME280;53853;51.982;5.928;2023-08-24T11:35:11;101251.84;;;25.52;62.52
66945;BME280;53853;51.982;5.928;2023-08-24T11:37:41;101256.00;;;25.54;62.66
66945;BME280;53853;51.982;5.928;2023-08-24T11:40:17;101255.03;;;25.60;62.79
66945;BME280;53853;51.982;5.928;2023-08-24T11:42:47;101250.25;;;25.67;62.89
66945;BME280;53853;51.982;5.928;2023-08-24T11:45:18;101242.53;;;25.76;62.98
66945;BME280;53853;51.982;5.928;2023-08-24T11:47:51;101245.72;;;25.85;62.31
66945;BME280;53853;51.982;5.928;2023-08-24T11:50:21;101230.28;;;25.91;62.27
66945;BME280;53853;51.982;5.928;2023-08-24T11:52:53;101230.59;;;25.94;61.94
66945;BME280;53853;51.982;5.928;2023-08-24T11:55:24;101219.09;;;25.92;61.54
66945;BME280;53853;51.982;5.928;2023-08-24T11:57:54;101217.44;;;25.91;61.29
66945;BME280;53853;51.982;5.928;2023-08-24T12:00:24;101206.03;;;25.94;60.86
66945;BME280;53853;51.982;5.928;2023-08-24T12:02:59;101200.09;;;25.97;61.04
66945;BME280;53853;51.982;5.928;2023-08-24T12:05:29;101202.22;;;25.95;59.56
66945;BME280;53853;51.982;5.928;2023-08-24T12:07:59;101195.47;;;25.98;60.07
66945;BME280;53853;51.982;5.928;2023-08-24T12:10:29;101194.16;;;26.00;60.03
66945;BME280;53853;51.982;5.928;2023-08-24T12:13:04;101190.22;;;26.08;60.17
66945;BME280;53853;51.982;5.928;2023-08-24T12:15:35;101186.50;;;26.14;60.36
66945;BME280;53853;51.982;5.928;2023-08-24T12:18:12;101186.59;;;26.19;60.18
66945;BME280;53853;51.982;5.928;2023-08-24T12:20:42;101176.22;;;26.21;60.36
66945;BME280;53853;51.982;5.928;2023-08-24T12:23:12;101161.25;;;26.24;60.34
66945;BME280;53853;51.982;5.928;2023-08-24T12:25:44;101152.56;;;26.27;60.45
66945;BME280;53853;51.982;5.928;2023-08-24T12:28:15;101157.53;;;26.30;60.60
66945;BME280;53853;51.982;5.928;2023-08-24T12:30:47;101153.50;;;26.33;60.56
66945;BME280;53853;51.982;5.928;2023-08-24T12:33:28;101161.41;;;26.34;60.18
66945;BME280;53853;51.982;5.928;2023-08-24T12:35:58;101156.47;;;26.31;60.07
66945;BME280;53853;51.982;5.928;2023-08-24T12:38:29;101158.59;;;26.29;59.44
66945;BME280;53853;51.982;5.928;2023-08-24T12:40:59;101144.88;;;26.24;59.31
66945;BME280;53853;51.982;5.928;2023-08-24T12:43:29;101135.84;;;26.24;59.59
66945;BME280;53853;51.982;5.928;2023-08-24T12:45:59;101135.00;;;26.23;59.95
66945;BME280;53853;51.982;5.928;2023-08-24T12:48:31;101141.31;;;26.24;60.23
66945;BME280;53853;51.982;5.928;2023-08-24T12:51:01;101136.44;;;26.26;60.39
66945;BME280;53853;51.982;5.928;2023-08-24T12:53:31;101122.75;;;26.26;60.49
66945;BME280;53853;51.982;5.928;2023-08-24T12:56:01;101121.59;;;26.21;60.58
66945;BME280;53853;51.982;5.928;2023-08-24T12:58:31;101117.47;;;26.19;60.58
66945;BME280;53853;51.982;5.928;2023-08-24T13:01:01;101102.97;;;26.18;60.68
66945;BME280;53853;51.982;5.928;2023-08-24T13:03:34;101099.16;;;26.19;60.83
66945;BME280;53853;51.982;5.928;2023-08-24T13:06:06;101092.88;;;26.19;60.61
66945;BME280;53853;51.982;5.928;2023-08-24T13:08:36;101086.81;;;26.17;60.79
66945;BME280;53853;51.982;5.928;2023-08-24T13:11:06;101073.69;;;26.14;60.46
66945;BME280;53853;51.982;5.928;2023-08-24T13:13:36;101064.97;;;26.17;60.52
66945;BME280;53853;51.982;5.928;2023-08-24T13:16:06;101055.22;;;26.21;60.61